Погода Друговона 2 недели

Скопье, Македония

24 июля-06 августа
  • 24июля
    Сегодня
    +17°
    +32°
    Небольшая облачность, возможен дождь с грозой
    ВремяПогодаТемператураВлажностьДавлениеВетер, м/сВероятность осадков
    02:00Ясно и безоблачно+20°C67 %705 мм0.8 м/с2 %
    05:00Ясно и безоблачно+19°C75 %705 мм0.8 м/с2 %
    08:00Ясно и безоблачно+24°C64 %706 мм0.7 м/с2 %
    11:00Практически безоблачно+30°C50 %706 мм1.2 м/с1 %
    14:00Небольшая облачность, возможен дождь с грозой+28°C63 %705 мм1.4 м/с24 %
    17:00Облачно с прояснениями, ливень+26°C65 %704 мм1.7 м/с52 %
    20:00Практически безоблачно+23°C82 %704 мм1.7 м/с24 %
    23:00Ясно и безоблачно+19°C92 %704 мм1.3 м/с7 %
  • 25июля
    Четверг
    +15°
    +29°
    Практически безоблачно
    ВремяПогодаТемператураВлажностьДавлениеВетер, м/сВероятность осадков
    02:00Ясно и безоблачно+18°C96 %703 мм1.3 м/с5 %
    05:00Ясно и безоблачно+18°C95 %703 мм1.4 м/с2 %
    08:00Практически безоблачно+21°C79 %704 мм2.1 м/с5 %
    11:00Ясно и безоблачно+26°C56 %704 мм4.0 м/с38 %
    14:00Практически безоблачно+28°C46 %703 мм3.3 м/с26 %
    17:00Практически безоблачно+28°C49 %703 мм2.3 м/с17 %
    20:00Ясно и безоблачно+24°C63 %703 мм1.4 м/с6 %
    23:00Ясно и безоблачно+19°C58 %704 мм2.1 м/с2 %
  • 26июля
    Пятница
    +15°
    +30°
    Практически безоблачно
    ВремяПогодаТемператураВлажностьДавлениеВетер, м/сВероятность осадков
    02:00Ясно и безоблачно+16°C73 %703 мм1.4 м/с2 %
    05:00Ясно и безоблачно+16°C80 %703 мм0.9 м/с2 %
    08:00Ясно и безоблачно+20°C62 %705 мм1.1 м/с2 %
    11:00Ясно и безоблачно+27°C44 %705 мм2.3 м/с2 %
    14:00Практически безоблачно+29°C40 %705 мм2.1 м/с2 %
    17:00Ясно и безоблачно+29°C39 %705 мм2.3 м/с2 %
    20:00Ясно и безоблачно+23°C55 %705 мм1.5 м/с2 %
    23:00Ясно и безоблачно+19°C57 %706 мм1.9 м/с2 %
  • 27июля
    Суббота
    +16°
    +32°
    Ясно и безоблачно
    ВремяПогодаТемператураВлажностьДавлениеВетер, м/сВероятность осадков
    02:00Ясно и безоблачно+16°C66 %706 мм1.5 м/с2 %
    05:00Ясно и безоблачно+16°C73 %707 мм0.9 м/с2 %
    08:00Ясно и безоблачно+21°C58 %709 мм0.8 м/с2 %
    11:00Ясно и безоблачно+28°C39 %710 мм1.5 м/с2 %
    14:00Ясно и безоблачно+31°C31 %709 мм1.4 м/с2 %
    17:00Ясно и безоблачно+31°C28 %709 мм1.1 м/с2 %
    20:00Ясно и безоблачно+25°C47 %709 мм1.4 м/с2 %
    23:00Ясно и безоблачно+20°C51 %709 мм1.0 м/с2 %
  • 28июля
    Воскресенье
    +17°
    +34°
    Ясно и безоблачно
    ВремяПогодаТемператураВлажностьДавлениеВетер, м/сВероятность осадков
    02:00Ясно и безоблачно+17°C57 %709 мм0.8 м/с2 %
    05:00Ясно и безоблачно+17°C62 %710 мм0.9 м/с2 %
    08:00Ясно и безоблачно+23°C56 %711 мм0.3 м/с2 %
    11:00Ясно и безоблачно+31°C38 %712 мм1.2 м/с2 %
    14:00Ясно и безоблачно+34°C30 %711 мм2.0 м/с2 %
    17:00Ясно и безоблачно+34°C28 %710 мм1.4 м/с2 %
    20:00Ясно и безоблачно+28°C51 %709 мм1.2 м/с2 %
    23:00Ясно и безоблачно+21°C62 %709 мм0.5 м/с2 %
Мы используем cookies
Соглашаюсь